Terminal Aerodrome Forecast
Issued by NWS Twin Cities, MN

Home | Current Version | Previous Version | Graphics & Text | Print | Product List | Glossary On
Versions: 1 2 3 4 5 6 7 8 9 10 11 12 13 14 15 16 17 18 19
000
FTUS43 KMPX 260500
TAFSTC
TAF
KSTC 260533Z 2606/2706 10007KT P6SM OVC050
     FM261100 04007KT 2SM -SN BR OVC015
     FM261800 35010KT 6SM -SN OVC015
     FM262100 33010KT P6SM OVC018
     FM270000 33010KT P6SM SCT050=

USA.gov is the U.S. government's official web portal to all federal, state and local government web resources and services.